Aeroporto :
LOGIN :

Iscrizione | Disclaimer

   EN    FR    IT 

 










Sommario :    VFR   VFR Marginale   IFR   IFR Intensivo   IFR Molto Intensivo
Visibilità : 
Base nubi : 
>= 8 km
>= 3000ft
5 / 8 km
1000 / 3000 ft
1500m / 5 km
500 / 1000 ft
800 / 1500m
200 / 500 ft
< 800m
< 200 ft
Simboli :   Temporali  Nebbia  Neve Forte  Precipitazioni Forti  Vento > 20 kt
SIGMETs :   Varie  Temporali  Ghiacco  Turbolenza  Onda orograficha  Ceneri Vulcaniche






- Altitudine del aeroporto : 1496 ft
- Codice IATA : SBZ


LRSB - Sibiu

ULTIMO METAR :
  • 282130Z VRB02KT 9999 FEW038 BKN073 10/10 Q1017 R27/29//95

METARs OBSOLETI :
  • 282100Z VRB02KT 9999 FEW036 SCT070 10/10 Q1017 R27/29//95
  • 282030Z 25006KT 9999 FEW038 SCT073 10/10 Q1017 R27/29//95
  • 282000Z 22003KT 9999 SCT038 SCT070 10/10 Q1017 R27/29//95
  • 281930Z VRB03KT 9999 BKN040 SCT068 10/10 Q1017 R27/29//95
  • 281900Z 24004KT 9999 SCT043 SCT070 10/10 Q1017 R27/29//95

TAF TAF LRSB
Valido dal 28 a 18 ore il 29 a 18 ore UTC


281700Z 2818/2918 27008KT 9999 FEW045CB
BECMG 2819/2821 SCT045
TEMPO 2823/2904 3000 BR BKN010 BKN040
TEMPO 2912/2918 VRB15G25KT 3000 TSRA BKN010 BKN035CB



MetMap, La meteo Aeronautica in un colpo d'occhio ! - Copyright ORBIFLY Dicembre 2007 - Disclaimer

ORBIFLY MET'MAP TEAM :

Programmazione e sviluppo : Alexandra Zaïnal
Concezione : Baudouin d'Aumeries
Aiuto per la programmazione : Marc-Olivier Méhu
Supporto tecnico e logistico : Manuel Goepfert
Aiuto per la traduzione : Arnaldo La Scala

Contatto : metmap@orbifly.com




FONTI E CREDITI :

   NOAA